Turah, Montana
Current Conditions -  °F | °C
As of 9:37 AM on Wednesday 22 Oct 2014 (Local Time) from KMSO Reporting Station
Haze Haze  
Wind Chill: 35°   Ceiling: Unl
Heat Index: 35°   Visibility: 3mi
Dew Point: 35°   Wind: 0mph
Humidity: 100%   Direction: NA
Pressure: 30.08"   Gusts: NA
Location:  46.774°N, 113.676°W
Report Text: KMSO 221537Z 00000KT 3SM BR SCT002 02/02 A3008 RMK AO2 T00170017
Loading
Personal Weather Stations






























Interactive Weather Map
Tropical Storm Tracking
New forecast layout! Learn more

10-Day Weather Forecast

Advertisements
Track Severe Weather on mobile